Time;durP1;ratioP1;P1;durP2;ratioP2;P2;SDS_P1;SDS_P2;PMS_P1;PMS_P2;Temp;Humidity;BMP_temperature;BMP_pressure;BME280_temperature;BME280_humidity;BME280_pressure;Samples;Min_cycle;Max_cycle;Signal;HPM_P1;HPM_P2
2023/10/17 00:02:27;;;;;;;16.40;8.48;;;;;;;4.66;61.63;98223.69;10367195;28;20076;-47
2023/10/17 00:07:27;;;;;;;17.85;8.70;;;;;;;4.59;62.20;98222.63;10366893;28;20107;-48
2023/10/17 00:12:39;;;;;;;16.00;9.05;;;;;;;4.57;61.98;98226.88;10366094;28;20505;-50
2023/10/17 00:17:39;;;;;;;17.15;8.70;;;;;;;4.46;62.06;98202.53;10406886;28;20095;-47
2023/10/17 00:22:38;;;;;;;19.33;8.18;;;;;;;4.35;62.63;98216.75;10407352;28;20059;-48
2023/10/17 00:27:37;;;;;;;17.88;9.23;;;;;;;4.29;62.57;98205.47;10407553;28;20075;-48
2023/10/17 00:32:41;;;;;;;16.00;8.40;;;;;;;4.28;62.79;98201.13;10406608;28;20128;-47
2023/10/17 00:37:46;;;;;;;18.33;7.78;;;;;;;4.18;63.12;98201.69;10402151;28;20463;-47
2023/10/17 00:42:45;;;;;;;15.45;8.50;;;;;;;4.11;63.27;98198.88;10365214;28;20072;-50
2023/10/17 00:47:45;;;;;;;16.98;7.85;;;;;;;4.14;63.10;98210.13;10365173;28;20056;-47
2023/10/17 00:52:44;;;;;;;15.35;8.15;;;;;;;4.06;63.64;98197.03;10363523;28;20057;-48
2023/10/17 00:57:45;;;;;;;13.23;7.32;;;;;;;3.97;63.63;98177.91;10365704;28;20068;-47
2023/10/17 01:02:46;;;;;;;13.90;8.38;;;;;;;3.88;64.45;98185.31;10364793;28;20761;-48
2023/10/17 01:07:45;;;;;;;16.70;8.48;;;;;;;3.81;64.27;98177.41;10364987;28;20060;-48
2023/10/17 01:13:04;;;;;;;17.23;9.15;;;;;;;3.89;64.35;98184.47;10365269;28;20434;-48
2023/10/17 01:18:06;;;;;;;16.70;9.50;;;;;;;3.82;64.41;98184.28;10364879;28;20080;-48
2023/10/17 01:23:07;;;;;;;16.15;8.38;;;;;;;3.75;64.53;98186.59;10363639;28;20071;-47
2023/10/17 01:28:06;;;;;;;13.70;7.80;;;;;;;3.72;64.44;98186.50;10364690;28;20180;-48
2023/10/17 01:33:07;;;;;;;13.07;7.45;;;;;;;3.65;64.84;98195.69;10363981;28;20067;-50
2023/10/17 01:38:08;;;;;;;16.25;8.02;;;;;;;3.58;64.25;98191.16;10394114;28;20076;-50
2023/10/17 01:43:10;;;;;;;14.32;7.45;;;;;;;3.47;64.71;98184.81;10404973;28;20087;-50
2023/10/17 01:48:11;;;;;;;15.77;7.85;;;;;;;3.34;64.61;98192.09;10395591;28;20069;-49
2023/10/17 01:53:12;;;;;;;12.98;7.93;;;;;;;3.29;64.58;98188.50;10364009;28;20053;-47
2023/10/17 01:58:15;;;;;;;12.57;7.53;;;;;;;3.29;64.89;98191.06;10363897;28;20061;-48
2023/10/17 02:03:16;;;;;;;13.90;7.10;;;;;;;2.99;64.90;98134.44;10362810;28;20081;-47
2023/10/17 02:08:18;;;;;;;14.20;7.80;;;;;;;3.37;64.58;98189.63;10363734;28;20516;-50
2023/10/17 02:13:17;;;;;;;13.43;8.13;;;;;;;3.29;64.96;98190.19;10363783;28;20063;-50
2023/10/17 02:18:17;;;;;;;14.15;8.00;;;;;;;3.29;65.14;98185.94;10363464;28;20116;-48
2023/10/17 02:23:20;;;;;;;15.32;8.32;;;;;;;3.32;64.76;98180.03;10363142;28;20472;-50
2023/10/17 02:28:20;;;;;;;13.98;8.52;;;;;;;3.33;64.99;98177.53;10363999;28;20068;-47
2023/10/17 02:33:19;;;;;;;19.95;8.88;;;;;;;2.91;65.26;98118.81;10407086;28;20083;-49
2023/10/17 02:38:19;;;;;;;18.55;9.43;;;;;;;3.22;65.77;98155.75;10401793;28;20064;-51
2023/10/17 02:43:18;;;;;;;15.80;8.40;;;;;;;3.31;65.76;98179.16;10370892;28;20080;-49
2023/10/17 02:48:23;;;;;;;17.45;8.95;;;;;;;3.26;65.86;98175.56;10370019;28;20361;-47
2023/10/17 02:53:24;;;;;;;15.98;7.95;;;;;;;3.22;66.11;98183.97;10369353;28;20064;-49
2023/10/17 02:58:23;;;;;;;17.17;9.05;;;;;;;2.91;66.17;98138.41;10369946;28;20541;-51
2023/10/17 03:03:22;;;;;;;19.52;9.57;;;;;;;3.02;66.08;98160.19;10368522;28;20040;-47
2023/10/17 03:08:22;;;;;;;16.42;8.52;;;;;;;2.91;66.41;98159.81;10369996;28;20076;-47
2023/10/17 03:18:20;;;;;;;17.27;8.05;;;;;;;2.55;67.76;98178.16;10369101;28;20071;-49
2023/10/17 03:23:29;;;;;;;15.43;7.72;;;;;;;2.41;67.61;98187.00;10368427;28;20021;-48
2023/10/17 03:28:28;;;;;;;14.55;8.30;;;;;;;1.69;69.06;98128.78;10370194;28;20547;-48
2023/10/17 03:33:27;;;;;;;17.75;9.40;;;;;;;2.08;68.67;98179.78;10371395;28;20133;-49
2023/10/17 03:38:32;;;;;;;17.40;8.13;;;;;;;2.19;68.55;98184.47;10381283;28;20127;-49
2023/10/17 03:43:45;;;;;;;15.85;9.68;;;;;;;2.29;68.13;98161.81;10410076;28;20543;-48
2023/10/17 03:48:56;;;;;;;14.48;7.90;;;;;;;2.41;68.23;98163.09;10412351;28;20063;-47
2023/10/17 03:54:06;;;;;;;15.50;8.52;;;;;;;1.91;68.42;98089.53;10411084;28;20752;-48
2023/10/17 03:59:25;;;;;;;13.50;7.22;;;;;;;2.39;68.44;98163.03;10410121;28;20075;-47
2023/10/17 04:04:35;;;;;;;18.77;8.67;;;;;;;2.45;68.64;98160.69;10411608;28;20068;-48
2023/10/17 04:14:58;;;;;;;21.98;11.45;;;;;;;1.72;67.92;98026.56;10411879;28;20060;-47
2023/10/17 04:20:11;;;;;;;20.80;10.63;;;;;;;2.45;68.61;98165.81;10370677;28;20072;-49
2023/10/17 04:30:35;;;;;;;21.48;12.45;;;;;;;2.57;68.22;98156.03;10367192;28;20494;-49
2023/10/17 04:35:35;;;;;;;19.90;12.50;;;;;;;2.74;67.92;98148.94;10365178;28;20102;-51
2023/10/17 04:40:37;;;;;;;18.80;12.25;;;;;;;2.87;67.58;98160.53;10367025;28;20576;-48
2023/10/17 04:45:43;;;;;;;22.65;12.82;;;;;;;2.78;68.04;98153.38;10365571;28;20128;-47
2023/10/17 04:50:45;;;;;;;20.25;10.82;;;;;;;2.88;67.71;98157.13;10382886;28;20131;-50
2023/10/17 04:56:02;;;;;;;20.60;9.73;;;;;;;2.92;67.78;98153.88;10374367;28;20072;-49
2023/10/17 05:06:15;;;;;;;20.95;10.52;;;;;;;3.11;66.79;98173.31;10365346;28;20488;-50
2023/10/17 06:20:11;;;;;;;19.73;9.98;;;;;;;5.81;60.22;98202.84;10407499;28;20064;-50
2023/10/17 06:30:29;;;;;;;18.90;10.77;;;;;;;6.61;59.62;98188.41;10417438;28;20032;-49
2023/10/17 06:35:31;;;;;;;20.23;11.70;;;;;;;7.10;58.17;98180.81;10410337;28;20080;-48
2023/10/17 06:40:33;;;;;;;25.13;13.38;;;;;;;7.01;55.81;98139.34;10377135;28;20348;-49
2023/10/17 06:45:36;;;;;;;27.58;14.23;;;;;;;7.50;55.60;98176.44;10377643;28;20069;-52
2023/10/17 06:55:59;;;;;;;22.80;12.65;;;;;;;7.54;54.71;98173.03;10419676;28;20440;-47
2023/10/17 07:00:59;;;;;;;20.42;10.77;;;;;;;7.30;55.31;98170.00;10414601;28;20503;-50
2023/10/17 07:06:16;;;;;;;20.65;11.55;;;;;;;7.36;55.29;98175.28;10418232;28;20492;-48
2023/10/17 07:16:24;;;;;;;17.08;8.30;;;;;;;7.75;54.90;98145.84;10416891;28;20063;-47
2023/10/17 07:21:24;;;;;;;13.70;7.78;;;;;;;8.13;54.10;98159.38;10419109;28;20068;-51
2023/10/17 07:31:28;;;;;;;16.75;8.80;;;;;;;9.23;51.40;98144.41;10414829;28;20567;-50
2023/10/17 07:36:27;;;;;;;15.93;9.55;;;;;;;9.49;51.37;98141.25;10415814;28;20072;-46
2023/10/17 07:41:38;;;;;;;19.40;9.73;;;;;;;9.78;50.29;98128.53;10417752;28;20119;-48
2023/10/17 07:46:38;;;;;;;24.92;12.02;;;;;;;10.11;48.69;98111.50;10414080;28;20059;-51
2023/10/17 07:51:42;;;;;;;19.00;9.15;;;;;;;10.46;48.36;98122.06;10415739;28;20064;-48
2023/10/17 07:56:47;;;;;;;11.95;7.53;;;;;;;10.55;46.53;98111.75;10413663;28;20078;-49
2023/10/17 08:01:46;;;;;;;15.30;7.30;;;;;;;10.76;46.62;98120.50;10411527;28;20071;-48
2023/10/17 08:06:46;;;;;;;13.60;8.07;;;;;;;11.22;46.07;98115.47;10402779;28;20064;-48
2023/10/17 08:11:46;;;;;;;12.95;7.63;;;;;;;11.51;44.85;98109.47;10414208;28;20052;-49
2023/10/17 08:16:48;;;;;;;15.10;7.78;;;;;;;11.76;44.01;98121.63;10404303;28;20518;-50
2023/10/17 08:27:12;;;;;;;16.30;9.75;;;;;;;11.70;43.49;98100.81;10389115;28;20064;-50
2023/10/17 08:37:27;;;;;;;12.77;7.82;;;;;;;12.09;44.30;98099.03;10415696;28;20067;-48
2023/10/17 08:47:30;;;;;;;10.77;6.90;;;;;;;12.57;42.50;98076.38;10414800;28;20518;-48
2023/10/17 08:52:35;;;;;;;14.57;8.38;;;;;;;12.93;42.29;98084.94;10413160;28;20472;-50
2023/10/17 08:57:36;;;;;;;13.98;7.93;;;;;;;13.10;42.11;98093.50;10413775;28;20064;-49
2023/10/17 09:02:39;;;;;;;16.95;10.25;;;;;;;13.53;41.33;98084.53;10403555;28;20051;-51
2023/10/17 09:07:43;;;;;;;14.57;7.68;;;;;;;13.65;40.88;98075.78;10383896;28;20055;-51
2023/10/17 09:18:07;;;;;;;13.93;7.25;;;;;;;14.47;40.62;98075.84;10411486;28;20056;-50
2023/10/17 09:23:29;;;;;;;12.38;6.85;;;;;;;14.71;39.04;98059.94;10411306;28;20060;-49
2023/10/17 09:28:28;;;;;;;12.02;6.68;;;;;;;14.88;37.33;98058.84;10412022;28;20059;-50
2023/10/17 09:33:30;;;;;;;12.07;6.38;;;;;;;14.89;37.01;98039.66;10411513;28;20529;-50
2023/10/17 09:38:34;;;;;;;11.43;6.38;;;;;;;14.85;37.26;98053.63;10410382;28;20083;-48
2023/10/17 09:43:33;;;;;;;12.45;6.20;;;;;;;15.25;37.67;98031.28;10394214;28;20069;-48
2023/10/17 09:48:35;;;;;;;16.10;5.90;;;;;;;15.63;36.63;98029.78;10397348;28;20056;-50
2023/10/17 09:53:38;;;;;;;10.18;6.00;;;;;;;15.51;36.00;98016.94;10402432;28;20487;-47
2023/10/17 09:58:42;;;;;;;10.48;4.82;;;;;;;15.33;35.91;98030.31;10419661;28;20060;-49
2023/10/17 10:03:42;;;;;;;9.95;4.97;;;;;;;15.57;36.40;98019.44;10416941;28;20056;-48
2023/10/17 10:08:41;;;;;;;8.75;4.88;;;;;;;15.86;35.57;97999.78;10389534;28;20073;-48
2023/10/17 10:13:59;;;;;;;;;;;;;;;15.86;36.08;98005.03;10414273;28;20063;-49
2023/10/17 10:18:58;;;;;;;8.55;4.82;;;;;;;15.95;34.87;98006.59;10420051;28;19951;-50
2023/10/17 10:23:57;;;;;;;8.35;3.75;;;;;;;16.06;34.55;97997.63;10397596;28;20072;-48
2023/10/17 10:29:22;;;;;;;10.35;4.60;;;;;;;16.41;35.22;97988.22;10417415;28;20060;-48
2023/10/17 10:34:21;;;;;;;8.00;4.30;;;;;;;16.81;34.72;97981.31;10411978;28;20071;-51
2023/10/17 10:39:20;;;;;;;9.18;4.13;;;;;;;16.82;33.75;97983.91;10379286;28;20021;-48
2023/10/17 10:44:20;;;;;;;;;;;;;;;16.95;34.10;97984.47;10396929;28;20436;-49
2023/10/17 10:49:28;;;;;;;9.95;4.70;;;;;;;17.42;33.34;97981.63;10415964;28;19956;-49
2023/10/17 10:54:50;;;;;;;15.53;5.20;;;;;;;17.49;33.07;97965.66;10414204;28;20462;-50
2023/10/17 10:59:49;;;;;;;9.27;4.38;;;;;;;17.68;33.71;97965.19;10409136;28;20071;-50
2023/10/17 11:04:48;;;;;;;6.72;3.97;;;;;;;18.12;34.07;97963.16;10411501;28;20452;-49
2023/10/17 11:10:07;;;;;;;9.88;3.85;;;;;;;18.60;32.68;97946.91;10414735;28;20450;-50
2023/10/17 11:15:16;;;;;;;5.63;3.20;;;;;;;18.71;32.25;97904.53;10397848;28;20065;-48
2023/10/17 11:20:17;;;;;;;9.38;3.70;;;;;;;19.03;31.37;97925.41;10402663;28;20071;-51
2023/10/17 11:25:26;;;;;;;7.65;3.60;;;;;;;19.19;31.56;97922.28;10418390;28;20068;-51
2023/10/17 11:30:42;;;;;;;6.35;3.38;;;;;;;19.29;30.67;97907.88;10420870;28;20404;-51
2023/10/17 11:35:52;;;;;;;4.57;2.85;;;;;;;18.91;30.43;97883.72;10420078;28;20179;-49
2023/10/17 11:40:51;;;;;;;6.45;2.97;;;;;;;18.87;30.89;97912.78;10419668;28;20048;-51
2023/10/17 11:45:49;;;;;;;8.80;3.13;;;;;;;18.92;30.71;97895.09;10417277;28;20080;-48
2023/10/17 11:50:50;;;;;;;12.30;3.08;;;;;;;18.50;30.45;97830.69;10415745;28;20024;-51
2023/10/17 11:55:50;;;;;;;6.78;3.35;;;;;;;18.85;31.04;97870.75;10420485;28;20087;-50
2023/10/17 12:00:50;;;;;;;7.95;2.58;;;;;;;18.36;31.11;97864.38;10382550;28;20083;-51
2023/10/17 12:05:49;;;;;;;7.80;3.03;;;;;;;17.86;31.67;97877.25;10378465;28;20728;-51
2023/10/17 12:10:53;;;;;;;5.32;2.90;;;;;;;17.76;32.36;97863.50;10378841;28;20076;-47
2023/10/17 12:15:52;;;;;;;6.22;2.65;;;;;;;17.93;32.59;97855.19;10379040;28;20067;-49
2023/10/17 12:20:55;;;;;;;6.45;3.40;;;;;;;18.15;32.14;97860.66;10378856;28;20028;-49
2023/10/17 12:25:54;;;;;;;6.15;3.42;;;;;;;18.05;32.45;97862.69;10378241;28;20037;-48
2023/10/17 12:30:56;;;;;;;5.95;2.85;;;;;;;17.41;32.30;97817.25;10375085;28;20061;-50
2023/10/17 12:35:58;;;;;;;5.45;2.60;;;;;;;17.63;32.47;97855.09;10374618;28;20056;-52
2023/10/17 12:40:58;;;;;;;6.00;2.85;;;;;;;17.52;32.87;97859.81;10374962;28;20067;-49
2023/10/17 12:45:57;;;;;;;14.23;3.35;;;;;;;16.95;33.71;97861.25;10374207;28;20499;-50
2023/10/17 12:50:56;;;;;;;7.90;4.25;;;;;;;16.65;34.32;97866.34;10374899;28;20464;-49
2023/10/17 12:55:55;;;;;;;;;;;;;;;16.22;35.07;97869.91;10375334;28;20095;-50
2023/10/17 13:00:54;;;;;;;10.57;3.50;;;;;;;15.87;35.59;97865.41;10372828;28;19951;-50
2023/10/17 13:05:53;;;;;;;;;;;;;;;15.49;36.00;97866.16;10374114;28;20037;-50
2023/10/17 13:10:55;;;;;;;11.07;5.33;;;;;;;15.34;36.74;97868.16;10373988;28;19955;-51
2023/10/17 13:16:00;;;;;;;11.30;5.07;;;;;;;15.35;36.54;97877.72;10400697;28;20683;-48
2023/10/17 13:21:06;;;;;;;7.65;4.25;;;;;;;14.85;36.77;97883.81;10412259;28;20064;-50
2023/10/17 13:26:15;;;;;;;10.13;4.97;;;;;;;14.61;37.54;97888.50;10413117;28;20063;-48
2023/10/17 13:31:15;;;;;;;12.82;5.47;;;;;;;14.30;37.84;97878.50;10413209;28;20075;-51
2023/10/17 13:36:16;;;;;;;10.15;5.85;;;;;;;14.02;38.05;97830.19;10414058;28;20075;-48
2023/10/17 13:41:15;;;;;;;13.80;6.00;;;;;;;14.02;38.61;97874.53;10413315;28;20511;-51
2023/10/17 13:46:14;;;;;;;;;;;;;;;14.05;38.64;97877.97;10414836;28;20060;-48
2023/10/17 13:51:15;;;;;;;8.43;5.67;;;;;;;13.95;38.61;97863.31;10413868;28;19950;-51
2023/10/17 13:56:18;;;;;;;9.77;4.75;;;;;;;14.03;38.46;97868.44;10413683;28;20309;-49
2023/10/17 14:01:32;;;;;;;7.65;4.45;;;;;;;13.90;39.06;97865.13;10413084;28;20539;-50
2023/10/17 14:06:34;;;;;;;10.68;4.60;;;;;;;13.60;39.83;97880.25;10412651;28;20089;-49
2023/10/17 14:11:32;;;;;;;9.02;4.75;;;;;;;13.44;40.36;97878.66;10412238;28;20064;-48
2023/10/17 14:16:32;;;;;;;9.65;4.28;;;;;;;13.34;39.91;97883.09;10374379;28;20052;-50
2023/10/17 14:21:34;;;;;;;13.43;4.93;;;;;;;13.30;40.74;97881.38;10371472;28;20495;-51
2023/10/17 14:26:34;;;;;;;11.55;5.40;;;;;;;13.26;40.88;97884.94;10372152;28;20075;-49
2023/10/17 14:31:33;;;;;;;11.80;5.45;;;;;;;13.02;41.25;97875.56;10382560;28;20077;-49
2023/10/17 14:36:32;;;;;;;10.07;4.85;;;;;;;13.11;41.17;97867.69;10383102;28;20037;-49
2023/10/17 14:41:31;;;;;;;10.93;5.75;;;;;;;13.42;40.80;97867.38;10382479;28;20392;-48
2023/10/17 14:46:30;;;;;;;12.45;5.50;;;;;;;13.43;40.58;97856.09;10382519;28;20078;-52
2023/10/17 14:51:29;;;;;;;12.98;4.97;;;;;;;13.24;40.70;97866.69;10381872;28;20488;-50
2023/10/17 14:56:28;;;;;;;8.65;4.50;;;;;;;13.03;40.72;97867.75;10381599;28;20068;-52
2023/10/17 15:01:27;;;;;;;13.23;6.13;;;;;;;13.04;41.08;97869.47;10381164;28;20488;-51
2023/10/17 15:06:26;;;;;;;12.60;6.57;;;;;;;12.78;42.17;97879.25;10381892;28;20067;-50
2023/10/17 15:11:26;;;;;;;14.50;6.03;;;;;;;12.61;42.88;97889.81;10382039;28;20037;-48
2023/10/17 15:16:25;;;;;;;12.63;5.50;;;;;;;12.22;43.66;97852.72;10381805;28;20027;-51
2023/10/17 15:21:26;;;;;;;;;;;;;;;12.44;43.95;97882.13;10381700;28;20045;-51
2023/10/17 15:26:25;;;;;;;11.20;6.35;;;;;;;12.49;45.51;97891.59;10381204;28;19916;-50
2023/10/17 15:31:26;;;;;;;;;;;;;;;12.25;46.29;97891.72;10378396;28;20080;-48
2023/10/17 15:36:25;;;;;;;11.88;6.47;;;;;;;12.24;46.67;97895.19;10377370;28;19959;-48
2023/10/17 15:41:24;;;;;;;;;;;;;;;12.20;46.47;97899.53;10377966;28;20073;-48
2023/10/17 15:46:24;;;;;;;16.45;9.88;;;;;;;12.26;47.51;97893.47;10376428;28;19908;-48
2023/10/17 15:51:26;;;;;;;19.88;12.02;;;;;;;12.34;48.62;97903.84;10376218;28;20076;-50
2023/10/17 15:56:28;;;;;;;18.70;10.93;;;;;;;12.44;48.65;97913.34;10389276;28;20063;-50
2023/10/17 16:01:27;;;;;;;19.70;10.98;;;;;;;12.32;48.25;97918.59;10413210;28;20068;-49
2023/10/17 16:06:26;;;;;;;17.35;9.23;;;;;;;12.30;48.26;97916.03;10417677;28;20124;-51
2023/10/17 16:11:25;;;;;;;15.55;8.18;;;;;;;12.35;49.31;97923.81;10416673;28;20040;-51
2023/10/17 16:16:24;;;;;;;14.77;7.78;;;;;;;12.29;49.04;97920.34;10417273;28;20067;-51
2023/10/17 16:21:24;;;;;;;18.80;8.10;;;;;;;12.30;49.93;97922.09;10416190;28;20071;-50
2023/10/17 16:26:23;;;;;;;14.90;10.00;;;;;;;12.32;50.81;97924.66;10413325;28;20085;-50
2023/10/17 16:31:24;;;;;;;20.63;10.75;;;;;;;12.37;50.77;97917.72;10413162;28;20071;-48
2023/10/17 16:36:23;;;;;;;31.27;11.82;;;;;;;12.33;51.08;97925.56;10413432;28;20573;-50
2023/10/17 16:41:25;;;;;;;16.67;10.60;;;;;;;12.38;51.36;97937.66;10414086;28;20362;-48
2023/10/17 16:46:28;;;;;;;18.63;10.93;;;;;;;12.33;51.46;97931.59;10412819;28;20507;-51
2023/10/17 16:51:28;;;;;;;18.60;10.77;;;;;;;12.26;52.00;97925.53;10412568;28;20068;-48
2023/10/17 16:56:27;;;;;;;16.45;10.82;;;;;;;12.29;51.71;97932.50;10412636;28;20068;-49
2023/10/17 17:01:26;;;;;;;16.55;9.52;;;;;;;12.28;52.46;97936.84;10412520;28;20134;-51
2023/10/17 17:06:26;;;;;;;15.50;8.77;;;;;;;12.28;52.28;97943.78;10412790;28;20119;-51
2023/10/17 17:11:25;;;;;;;14.40;8.20;;;;;;;12.22;52.74;97934.22;10412983;28;20071;-49
2023/10/17 17:16:24;;;;;;;;;;;;;;;12.28;53.04;97936.84;10413384;28;20143;-49
2023/10/17 17:21:23;;;;;;;14.38;8.90;;;;;;;12.24;53.48;97937.69;10411914;28;19965;-49
2023/10/17 17:26:22;;;;;;;12.60;8.35;;;;;;;12.16;53.39;97942.06;10412209;28;20488;-48
2023/10/17 17:31:21;;;;;;;18.52;9.95;;;;;;;12.16;54.60;97942.06;10411585;28;20083;-50
2023/10/17 17:36:21;;;;;;;18.92;11.35;;;;;;;12.15;55.90;97937.72;10411850;28;20454;-48
2023/10/17 17:41:20;;;;;;;18.05;11.70;;;;;;;12.18;57.13;97948.13;10411051;28;20530;-51
2023/10/17 17:46:20;;;;;;;15.93;10.80;;;;;;;12.16;58.90;97941.19;10411663;28;20110;-50
2023/10/17 17:51:18;;;;;;;20.40;11.38;;;;;;;12.09;59.09;97942.97;10411328;28;20496;-47
2023/10/17 18:29:14;;;;;;;19.05;12.77;;;;;;;10.44;68.81;97939.59;10492990;27;20450;-48
2023/10/17 18:34:14;;;;;;;16.85;13.02;;;;;;;10.83;67.68;97956.09;10493063;28;20071;-50
2023/10/17 18:39:13;;;;;;;18.70;12.60;;;;;;;10.95;66.93;97963.94;10493146;28;20070;-49
2023/10/17 18:44:14;;;;;;;18.50;11.20;;;;;;;11.03;66.42;97970.00;10492377;28;20074;-51
2023/10/17 18:49:13;;;;;;;24.38;14.00;;;;;;;11.12;66.17;97960.47;10491718;28;20067;-50
2023/10/17 18:54:13;;;;;;;21.98;14.98;;;;;;;10.96;66.21;97934.53;10491450;28;20501;-51
2023/10/17 18:59:12;;;;;;;25.48;15.10;;;;;;;11.14;65.25;97959.59;10491517;28;20063;-49
2023/10/17 19:04:11;;;;;;;24.98;16.88;;;;;;;11.19;63.00;97967.41;10492450;28;20012;-49
2023/10/17 19:09:12;;;;;;;22.75;16.90;;;;;;;11.12;63.58;97965.66;10491261;28;20042;-48
2023/10/17 19:14:11;;;;;;;31.63;20.48;;;;;;;11.10;63.67;97973.44;10490934;28;20047;-51
2023/10/17 19:19:10;;;;;;;24.30;15.60;;;;;;;10.87;64.46;97968.25;10489238;28;20048;-50
2023/10/17 19:24:10;;;;;;;19.92;13.98;;;;;;;10.81;65.41;97982.06;10490831;28;20035;-49
2023/10/17 19:29:09;;;;;;;20.20;13.10;;;;;;;10.84;65.92;97987.25;10468845;28;20075;-52
2023/10/17 19:34:08;;;;;;;19.90;13.63;;;;;;;10.91;65.67;97982.97;10461780;28;20067;-50
2023/10/17 19:39:06;;;;;;;21.65;13.50;;;;;;;10.91;66.92;97984.69;10460960;28;20181;-48
2023/10/17 19:44:05;;;;;;;20.20;11.73;;;;;;;10.95;67.00;97969.13;10461643;28;20119;-53
2023/10/17 19:49:07;;;;;;;20.63;11.55;;;;;;;10.94;67.05;97961.31;10461394;28;20554;-50
2023/10/17 19:54:06;;;;;;;17.67;12.52;;;;;;;11.08;67.65;97974.31;10460449;28;20364;-51
2023/10/17 19:59:06;;;;;;;25.10;14.77;;;;;;;11.10;68.04;97980.38;10460860;28;20120;-51
2023/10/17 20:04:05;;;;;;;21.95;12.63;;;;;;;11.14;66.96;97984.72;10460902;28;20063;-50
2023/10/17 20:09:07;;;;;;;17.98;11.77;;;;;;;11.12;66.51;97981.25;10460210;28;20095;-50
2023/10/17 20:14:07;;;;;;;16.20;11.10;;;;;;;11.20;66.67;97985.59;10453566;28;20059;-49
2023/10/17 20:19:07;;;;;;;16.92;10.80;;;;;;;11.08;66.25;97969.13;10448992;28;20102;-49
2023/10/17 20:24:06;;;;;;;19.70;11.40;;;;;;;11.17;66.49;97979.53;10448558;28;20497;-50
2023/10/17 20:29:12;;;;;;;;;;;;;;;11.19;66.37;97978.66;10454020;28;20545;-51
2023/10/17 20:34:13;;;;;;;19.30;11.70;;;;;;;11.22;65.55;97982.97;10452191;28;19963;-49
2023/10/17 20:39:12;;;;;;;17.13;11.15;;;;;;;11.20;65.07;97977.81;10450875;28;20506;-48
2023/10/17 20:44:11;;;;;;;15.00;10.52;;;;;;;11.20;65.27;97972.59;10451993;28;20437;-52
2023/10/17 20:49:11;;;;;;;17.02;10.50;;;;;;;11.20;64.68;97967.41;10451516;28;20035;-51
2023/10/17 20:54:10;;;;;;;14.35;10.27;;;;;;;11.19;64.50;97972.59;10451506;28;20425;-52
2023/10/17 20:59:10;;;;;;;15.63;9.63;;;;;;;11.21;64.66;97969.13;10450988;28;20044;-49
2023/10/17 21:04:09;;;;;;;17.83;10.20;;;;;;;11.20;65.11;97963.97;10451229;28;20062;-52
2023/10/17 21:09:08;;;;;;;13.75;9.45;;;;;;;11.21;66.21;97955.28;10451040;28;20474;-50
2023/10/17 21:14:09;;;;;;;14.57;9.30;;;;;;;11.21;65.91;97955.28;10450893;28;20127;-48
2023/10/17 21:19:09;;;;;;;14.05;9.90;;;;;;;11.24;65.14;97960.47;10450512;28;20111;-51
2023/10/17 21:24:09;;;;;;;16.85;10.90;;;;;;;11.18;65.24;97956.16;10450110;28;20063;-49
2023/10/17 21:29:10;;;;;;;19.85;12.45;;;;;;;11.00;66.41;97946.63;10449013;28;20509;-51
2023/10/17 21:34:09;;;;;;;18.17;12.68;;;;;;;10.98;65.72;97950.94;10450315;28;20096;-50
2023/10/17 21:39:15;;;;;;;;;;;;;;;10.94;66.20;97946.63;10450026;28;20071;-49
2023/10/17 21:44:14;;;;;;;19.73;13.45;;;;;;;10.93;65.63;97949.22;10449284;28;19990;-52
2023/10/17 21:49:13;;;;;;;20.63;12.88;;;;;;;10.87;65.86;97956.97;10449899;28;20036;-51
2023/10/17 21:54:12;;;;;;;19.92;13.52;;;;;;;10.88;65.72;97949.22;10449568;28;20486;-51
2023/10/17 21:59:13;;;;;;;21.98;15.05;;;;;;;10.75;65.97;97927.56;10449513;28;20103;-50
2023/10/17 22:04:15;;;;;;;24.02;15.63;;;;;;;10.89;65.43;97943.16;10449251;28;20064;-51
2023/10/17 22:09:19;;;;;;;23.50;15.15;;;;;;;10.90;64.87;97934.50;10449116;28;20052;-51
2023/10/17 22:14:18;;;;;;;22.60;15.18;;;;;;;10.91;64.70;97928.44;10445174;28;20071;-49
2023/10/17 22:19:18;;;;;;;20.13;14.85;;;;;;;10.85;65.03;97923.22;10445492;28;20074;-49
2023/10/17 22:24:17;;;;;;;24.80;14.35;;;;;;;10.86;64.16;97898.97;10445922;28;20072;-50
2023/10/17 22:29:16;;;;;;;23.42;14.18;;;;;;;10.84;64.10;97887.72;10448850;28;20153;-50
2023/10/17 22:34:15;;;;;;;19.63;14.30;;;;;;;10.89;65.13;97882.56;10447815;28;20157;-52
2023/10/17 22:39:14;;;;;;;20.13;13.80;;;;;;;10.80;64.40;97875.63;10449090;28;20067;-52
2023/10/17 22:44:13;;;;;;;21.10;14.57;;;;;;;10.75;65.04;97886.03;10448792;28;20035;-50
2023/10/17 22:49:12;;;;;;;24.27;16.35;;;;;;;10.58;66.79;97900.69;10448098;28;20086;-50
2023/10/17 22:54:11;;;;;;;23.90;16.77;;;;;;;10.46;67.43;97905.88;10448061;28;20127;-51
2023/10/17 22:59:10;;;;;;;26.80;17.25;;;;;;;10.47;68.46;97910.19;10448292;28;20020;-50
2023/10/17 23:04:11;;;;;;;27.45;17.52;;;;;;;10.46;68.54;97898.94;10453492;28;20066;-49
2023/10/17 23:09:10;;;;;;;26.23;17.13;;;;;;;10.36;68.89;97879.91;10456259;28;20560;-50
2023/10/17 23:14:12;;;;;;;;;;;;;;;10.49;68.28;97903.28;10456148;28;20059;-51
2023/10/17 23:19:12;;;;;;;23.45;16.90;;;;;;;10.41;68.98;97911.06;10455291;28;19944;-49
2023/10/17 23:24:14;;;;;;;23.58;16.65;;;;;;;10.39;68.39;97910.19;10454662;28;20079;-51
2023/10/17 23:29:13;;;;;;;24.33;15.90;;;;;;;10.50;68.83;97915.41;10455076;28;20086;-48
2023/10/17 23:34:14;;;;;;;24.23;15.40;;;;;;;10.51;68.58;97902.41;10455604;28;20131;-49
2023/10/17 23:39:13;;;;;;;21.05;14.27;;;;;;;10.64;68.02;97915.44;10454387;28;20055;-52
2023/10/17 23:44:13;;;;;;;22.83;15.00;;;;;;;10.58;68.31;97900.69;10452432;28;20044;-50
2023/10/17 23:49:12;;;;;;;;;;;;;;;10.66;68.43;97900.69;10455078;28;20063;-49
2023/10/17 23:54:11;;;;;;;19.85;14.38;;;;;;;10.67;68.38;97911.09;10453972;28;20426;-50
2023/10/17 23:59:10;;;;;;;17.48;12.45;;;;;;;10.66;67.71;97892.91;10453259;28;20440;-48
